sensor_id;sensor_type;location;lat;lon;timestamp;P1;durP1;ratioP1;P2;durP2;ratioP2
73359;SDS011;63092;43.582;19.528;2024-02-23T00:00:53;59.03;;;30.17;;
73359;SDS011;63092;43.582;19.528;2024-02-23T00:03:19;52.42;;;28.20;;
73359;SDS011;63092;43.582;19.528;2024-02-23T00:05:44;110.10;;;57.25;;
73359;SDS011;63092;43.582;19.528;2024-02-23T00:08:12;58.53;;;33.80;;
73359;SDS011;63092;43.582;19.528;2024-02-23T00:10:37;33.78;;;20.25;;
73359;SDS011;63092;43.582;19.528;2024-02-23T00:13:03;55.40;;;32.10;;
73359;SDS011;63092;43.582;19.528;2024-02-23T00:15:29;80.55;;;40.47;;
73359;SDS011;63092;43.582;19.528;2024-02-23T00:17:55;72.25;;;36.17;;
73359;SDS011;63092;43.582;19.528;2024-02-23T00:20:21;66.82;;;34.95;;
73359;SDS011;63092;43.582;19.528;2024-02-23T00:22:47;60.75;;;30.92;;
73359;SDS011;63092;43.582;19.528;2024-02-23T00:25:13;59.25;;;33.28;;
73359;SDS011;63092;43.582;19.528;2024-02-23T00:27:39;52.58;;;29.70;;
73359;SDS011;63092;43.582;19.528;2024-02-23T00:30:07;48.17;;;26.08;;
73359;SDS011;63092;43.582;19.528;2024-02-23T00:32:33;94.72;;;46.25;;
73359;SDS011;63092;43.582;19.528;2024-02-23T00:34:58;63.05;;;33.22;;
73359;SDS011;63092;43.582;19.528;2024-02-23T00:37:24;113.63;;;55.53;;
73359;SDS011;63092;43.582;19.528;2024-02-23T00:39:50;64.78;;;34.50;;
73359;SDS011;63092;43.582;19.528;2024-02-23T00:42:16;56.33;;;31.38;;
73359;SDS011;63092;43.582;19.528;2024-02-23T00:44:41;50.42;;;26.92;;
73359;SDS011;63092;43.582;19.528;2024-02-23T00:47:07;51.53;;;28.83;;
73359;SDS011;63092;43.582;19.528;2024-02-23T00:49:33;116.65;;;58.28;;
73359;SDS011;63092;43.582;19.528;2024-02-23T00:51:59;79.93;;;41.28;;
73359;SDS011;63092;43.582;19.528;2024-02-23T00:54:25;69.72;;;36.20;;
73359;SDS011;63092;43.582;19.528;2024-02-23T00:56:50;66.03;;;34.70;;
73359;SDS011;63092;43.582;19.528;2024-02-23T00:59:16;56.17;;;30.70;;
73359;SDS011;63092;43.582;19.528;2024-02-23T01:01:42;55.55;;;29.10;;
73359;SDS011;63092;43.582;19.528;2024-02-23T01:04:08;62.75;;;35.40;;
73359;SDS011;63092;43.582;19.528;2024-02-23T01:06:33;53.47;;;29.13;;
73359;SDS011;63092;43.582;19.528;2024-02-23T01:08:59;83.03;;;44.83;;
73359;SDS011;63092;43.582;19.528;2024-02-23T01:11:25;65.05;;;32.90;;
73359;SDS011;63092;43.582;19.528;2024-02-23T01:13:50;132.13;;;60.78;;
73359;SDS011;63092;43.582;19.528;2024-02-23T01:16:16;71.32;;;38.50;;
73359;SDS011;63092;43.582;19.528;2024-02-23T01:18:42;47.80;;;26.35;;
73359;SDS011;63092;43.582;19.528;2024-02-23T01:21:08;60.05;;;33.03;;
73359;SDS011;63092;43.582;19.528;2024-02-23T01:23:33;52.40;;;30.63;;
73359;SDS011;63092;43.582;19.528;2024-02-23T01:25:59;75.32;;;40.50;;
73359;SDS011;63092;43.582;19.528;2024-02-23T01:28:25;58.80;;;31.70;;
73359;SDS011;63092;43.582;19.528;2024-02-23T01:30:51;51.13;;;27.10;;
73359;SDS011;63092;43.582;19.528;2024-02-23T01:33:16;45.35;;;25.05;;
73359;SDS011;63092;43.582;19.528;2024-02-23T01:35:42;31.50;;;16.80;;
73359;SDS011;63092;43.582;19.528;2024-02-23T01:38:08;35.20;;;18.17;;
73359;SDS011;63092;43.582;19.528;2024-02-23T01:40:33;32.42;;;17.67;;
73359;SDS011;63092;43.582;19.528;2024-02-23T01:43:08;30.35;;;16.58;;
73359;SDS011;63092;43.582;19.528;2024-02-23T01:45:34;26.48;;;14.55;;
73359;SDS011;63092;43.582;19.528;2024-02-23T01:48:00;24.15;;;14.63;;
73359;SDS011;63092;43.582;19.528;2024-02-23T01:50:26;56.38;;;29.15;;
73359;SDS011;63092;43.582;19.528;2024-02-23T01:52:52;16.10;;;9.18;;
73359;SDS011;63092;43.582;19.528;2024-02-23T01:55:22;12.18;;;7.53;;
73359;SDS011;63092;43.582;19.528;2024-02-23T01:57:48;6.60;;;3.90;;
73359;SDS011;63092;43.582;19.528;2024-02-23T02:00:15;10.27;;;7.43;;
73359;SDS011;63092;43.582;19.528;2024-02-23T02:02:43;5.88;;;4.40;;
73359;SDS011;63092;43.582;19.528;2024-02-23T02:05:09;5.10;;;3.17;;
73359;SDS011;63092;43.582;19.528;2024-02-23T02:07:35;7.88;;;4.38;;
73359;SDS011;63092;43.582;19.528;2024-02-23T02:10:02;9.23;;;5.28;;
73359;SDS011;63092;43.582;19.528;2024-02-23T02:12:29;6.70;;;4.07;;
73359;SDS011;63092;43.582;19.528;2024-02-23T02:14:55;8.18;;;4.82;;
73359;SDS011;63092;43.582;19.528;2024-02-23T02:17:21;4.78;;;3.20;;
73359;SDS011;63092;43.582;19.528;2024-02-23T02:19:49;7.93;;;4.50;;
73359;SDS011;63092;43.582;19.528;2024-02-23T02:22:15;7.17;;;4.63;;
73359;SDS011;63092;43.582;19.528;2024-02-23T02:24:41;9.43;;;5.10;;
73359;SDS011;63092;43.582;19.528;2024-02-23T02:27:08;5.95;;;3.53;;
73359;SDS011;63092;43.582;19.528;2024-02-23T02:29:35;10.38;;;4.68;;
73359;SDS011;63092;43.582;19.528;2024-02-23T02:32:01;8.75;;;4.22;;
73359;SDS011;63092;43.582;19.528;2024-02-23T02:34:27;6.20;;;3.53;;
73359;SDS011;63092;43.582;19.528;2024-02-23T02:36:54;9.18;;;5.20;;
73359;SDS011;63092;43.582;19.528;2024-02-23T02:39:20;5.85;;;3.30;;
73359;SDS011;63092;43.582;19.528;2024-02-23T02:41:47;4.40;;;2.70;;
73359;SDS011;63092;43.582;19.528;2024-02-23T02:44:13;4.70;;;2.92;;
73359;SDS011;63092;43.582;19.528;2024-02-23T02:46:40;5.30;;;3.10;;
73359;SDS011;63092;43.582;19.528;2024-02-23T02:49:06;5.65;;;3.05;;
73359;SDS011;63092;43.582;19.528;2024-02-23T02:51:31;5.60;;;3.20;;
73359;SDS011;63092;43.582;19.528;2024-02-23T02:53:57;5.05;;;3.15;;
73359;SDS011;63092;43.582;19.528;2024-02-23T02:56:23;5.93;;;3.30;;
73359;SDS011;63092;43.582;19.528;2024-02-23T02:58:49;6.15;;;3.08;;
73359;SDS011;63092;43.582;19.528;2024-02-23T03:01:15;5.70;;;3.75;;
73359;SDS011;63092;43.582;19.528;2024-02-23T03:03:40;7.13;;;3.33;;
73359;SDS011;63092;43.582;19.528;2024-02-23T03:06:06;5.53;;;3.58;;
73359;SDS011;63092;43.582;19.528;2024-02-23T03:08:32;6.05;;;3.83;;
73359;SDS011;63092;43.582;19.528;2024-02-23T03:10:58;5.90;;;3.70;;
73359;SDS011;63092;43.582;19.528;2024-02-23T03:13:24;5.45;;;3.20;;
73359;SDS011;63092;43.582;19.528;2024-02-23T03:15:50;7.22;;;3.65;;
73359;SDS011;63092;43.582;19.528;2024-02-23T03:18:16;13.15;;;5.05;;
73359;SDS011;63092;43.582;19.528;2024-02-23T03:20:41;6.93;;;3.85;;
73359;SDS011;63092;43.582;19.528;2024-02-23T03:23:07;6.57;;;3.42;;
73359;SDS011;63092;43.582;19.528;2024-02-23T03:25:33;5.85;;;3.50;;
73359;SDS011;63092;43.582;19.528;2024-02-23T03:27:59;8.02;;;3.80;;
73359;SDS011;63092;43.582;19.528;2024-02-23T03:30:25;6.45;;;3.83;;
73359;SDS011;63092;43.582;19.528;2024-02-23T03:32:51;7.65;;;3.97;;
73359;SDS011;63092;43.582;19.528;2024-02-23T03:35:17;6.10;;;3.75;;
73359;SDS011;63092;43.582;19.528;2024-02-23T03:37:42;7.82;;;4.03;;
73359;SDS011;63092;43.582;19.528;2024-02-23T03:40:08;9.60;;;5.07;;
73359;SDS011;63092;43.582;19.528;2024-02-23T03:42:35;8.90;;;4.50;;
73359;SDS011;63092;43.582;19.528;2024-02-23T03:45:01;8.27;;;4.72;;
73359;SDS011;63092;43.582;19.528;2024-02-23T03:47:28;9.98;;;5.75;;
73359;SDS011;63092;43.582;19.528;2024-02-23T03:49:53;7.95;;;4.72;;
73359;SDS011;63092;43.582;19.528;2024-02-23T03:52:19;6.20;;;4.18;;
73359;SDS011;63092;43.582;19.528;2024-02-23T03:54:45;6.97;;;3.80;;
73359;SDS011;63092;43.582;19.528;2024-02-23T03:57:10;7.13;;;4.28;;
73359;SDS011;63092;43.582;19.528;2024-02-23T03:59:36;6.93;;;4.10;;
73359;SDS011;63092;43.582;19.528;2024-02-23T04:02:06;5.95;;;3.42;;
73359;SDS011;63092;43.582;19.528;2024-02-23T04:04:32;6.00;;;3.78;;
73359;SDS011;63092;43.582;19.528;2024-02-23T04:06:58;9.20;;;4.95;;
73359;SDS011;63092;43.582;19.528;2024-02-23T04:09:24;7.70;;;4.70;;
73359;SDS011;63092;43.582;19.528;2024-02-23T04:11:49;12.32;;;6.28;;
73359;SDS011;63092;43.582;19.528;2024-02-23T04:14:15;9.40;;;5.40;;
73359;SDS011;63092;43.582;19.528;2024-02-23T04:16:41;10.07;;;6.70;;
73359;SDS011;63092;43.582;19.528;2024-02-23T04:19:06;7.78;;;4.50;;
73359;SDS011;63092;43.582;19.528;2024-02-23T04:21:32;7.65;;;4.35;;
73359;SDS011;63092;43.582;19.528;2024-02-23T04:23:58;5.70;;;3.92;;
73359;SDS011;63092;43.582;19.528;2024-02-23T04:26:24;12.82;;;8.15;;
73359;SDS011;63092;43.582;19.528;2024-02-23T04:28:49;13.45;;;9.15;;
73359;SDS011;63092;43.582;19.528;2024-02-23T04:31:15;7.90;;;5.25;;
73359;SDS011;63092;43.582;19.528;2024-02-23T04:33:41;6.60;;;4.20;;
73359;SDS011;63092;43.582;19.528;2024-02-23T04:36:07;6.90;;;4.10;;
73359;SDS011;63092;43.582;19.528;2024-02-23T04:38:33;6.57;;;4.20;;
73359;SDS011;63092;43.582;19.528;2024-02-23T04:41:02;6.10;;;4.18;;
73359;SDS011;63092;43.582;19.528;2024-02-23T04:43:32;7.82;;;4.43;;
73359;SDS011;63092;43.582;19.528;2024-02-23T04:45:58;7.72;;;5.65;;
73359;SDS011;63092;43.582;19.528;2024-02-23T04:48:23;7.05;;;4.30;;
73359;SDS011;63092;43.582;19.528;2024-02-23T04:50:49;6.07;;;3.72;;
73359;SDS011;63092;43.582;19.528;2024-02-23T04:53:15;6.38;;;3.65;;
73359;SDS011;63092;43.582;19.528;2024-02-23T04:55:41;6.25;;;3.97;;
73359;SDS011;63092;43.582;19.528;2024-02-23T04:58:07;6.68;;;4.10;;
73359;SDS011;63092;43.582;19.528;2024-02-23T05:00:32;3.95;;;2.60;;
73359;SDS011;63092;43.582;19.528;2024-02-23T05:03:01;5.30;;;2.80;;
73359;SDS011;63092;43.582;19.528;2024-02-23T05:05:29;6.03;;;3.53;;
73359;SDS011;63092;43.582;19.528;2024-02-23T05:07:55;5.65;;;2.72;;
73359;SDS011;63092;43.582;19.528;2024-02-23T05:10:21;7.15;;;3.40;;
73359;SDS011;63092;43.582;19.528;2024-02-23T05:12:47;7.32;;;4.30;;
73359;SDS011;63092;43.582;19.528;2024-02-23T05:15:13;4.75;;;2.72;;
73359;SDS011;63092;43.582;19.528;2024-02-23T05:17:39;6.72;;;3.13;;
73359;SDS011;63092;43.582;19.528;2024-02-23T05:20:05;5.93;;;3.05;;
73359;SDS011;63092;43.582;19.528;2024-02-23T05:22:35;6.10;;;3.40;;
73359;SDS011;63092;43.582;19.528;2024-02-23T05:25:04;4.85;;;2.85;;
73359;SDS011;63092;43.582;19.528;2024-02-23T05:27:30;5.28;;;2.92;;
73359;SDS011;63092;43.582;19.528;2024-02-23T05:29:56;4.30;;;2.60;;
73359;SDS011;63092;43.582;19.528;2024-02-23T05:32:22;4.78;;;2.80;;
73359;SDS011;63092;43.582;19.528;2024-02-23T05:34:48;7.05;;;3.40;;
73359;SDS011;63092;43.582;19.528;2024-02-23T05:37:16;5.38;;;3.03;;
73359;SDS011;63092;43.582;19.528;2024-02-23T05:39:42;6.07;;;3.42;;
73359;SDS011;63092;43.582;19.528;2024-02-23T05:42:09;8.23;;;4.00;;
73359;SDS011;63092;43.582;19.528;2024-02-23T05:44:35;7.03;;;3.40;;
73359;SDS011;63092;43.582;19.528;2024-02-23T05:47:01;7.60;;;3.30;;
73359;SDS011;63092;43.582;19.528;2024-02-23T05:49:27;7.38;;;4.18;;
73359;SDS011;63092;43.582;19.528;2024-02-23T05:51:53;8.00;;;3.60;;
73359;SDS011;63092;43.582;19.528;2024-02-23T05:54:20;6.32;;;3.20;;
73359;SDS011;63092;43.582;19.528;2024-02-23T05:56:45;5.65;;;3.03;;
73359;SDS011;63092;43.582;19.528;2024-02-23T05:59:11;5.63;;;2.78;;
73359;SDS011;63092;43.582;19.528;2024-02-23T06:01:37;7.53;;;3.40;;
73359;SDS011;63092;43.582;19.528;2024-02-23T06:04:03;6.72;;;3.10;;
73359;SDS011;63092;43.582;19.528;2024-02-23T06:06:29;8.15;;;4.18;;
73359;SDS011;63092;43.582;19.528;2024-02-23T06:08:54;11.88;;;6.03;;
73359;SDS011;63092;43.582;19.528;2024-02-23T06:11:20;10.38;;;5.20;;
73359;SDS011;63092;43.582;19.528;2024-02-23T06:13:46;10.95;;;6.10;;
73359;SDS011;63092;43.582;19.528;2024-02-23T06:16:12;7.18;;;4.43;;
73359;SDS011;63092;43.582;19.528;2024-02-23T06:18:38;5.25;;;3.10;;
73359;SDS011;63092;43.582;19.528;2024-02-23T06:21:16;5.57;;;3.38;;
73359;SDS011;63092;43.582;19.528;2024-02-23T06:23:43;11.48;;;6.43;;
73359;SDS011;63092;43.582;19.528;2024-02-23T06:26:09;7.75;;;4.20;;
73359;SDS011;63092;43.582;19.528;2024-02-23T06:28:35;9.43;;;4.75;;
73359;SDS011;63092;43.582;19.528;2024-02-23T06:31:06;8.43;;;4.57;;
73359;SDS011;63092;43.582;19.528;2024-02-23T06:33:32;7.00;;;3.00;;
73359;SDS011;63092;43.582;19.528;2024-02-23T06:35:58;5.13;;;2.80;;
73359;SDS011;63092;43.582;19.528;2024-02-23T06:38:24;14.98;;;7.93;;
73359;SDS011;63092;43.582;19.528;2024-02-23T06:40:50;10.63;;;5.88;;
73359;SDS011;63092;43.582;19.528;2024-02-23T06:43:16;10.18;;;5.47;;
73359;SDS011;63092;43.582;19.528;2024-02-23T06:45:42;9.80;;;4.97;;
73359;SDS011;63092;43.582;19.528;2024-02-23T06:48:08;11.25;;;7.05;;
73359;SDS011;63092;43.582;19.528;2024-02-23T06:50:34;6.82;;;4.05;;
73359;SDS011;63092;43.582;19.528;2024-02-23T06:53:00;8.70;;;4.95;;
73359;SDS011;63092;43.582;19.528;2024-02-23T06:55:27;12.45;;;6.45;;
73359;SDS011;63092;43.582;19.528;2024-02-23T06:57:53;7.38;;;4.47;;
73359;SDS011;63092;43.582;19.528;2024-02-23T07:00:20;13.15;;;6.97;;
73359;SDS011;63092;43.582;19.528;2024-02-23T07:02:49;8.88;;;4.72;;
73359;SDS011;63092;43.582;19.528;2024-02-23T07:05:14;7.35;;;4.47;;
73359;SDS011;63092;43.582;19.528;2024-02-23T07:07:40;8.43;;;4.45;;
73359;SDS011;63092;43.582;19.528;2024-02-23T07:10:06;7.47;;;3.60;;
73359;SDS011;63092;43.582;19.528;2024-02-23T07:12:33;9.77;;;5.43;;
73359;SDS011;63092;43.582;19.528;2024-02-23T07:14:59;7.40;;;3.80;;
73359;SDS011;63092;43.582;19.528;2024-02-23T07:17:24;7.88;;;4.18;;
73359;SDS011;63092;43.582;19.528;2024-02-23T07:19:50;5.63;;;3.47;;
73359;SDS011;63092;43.582;19.528;2024-02-23T07:22:17;8.27;;;4.45;;
73359;SDS011;63092;43.582;19.528;2024-02-23T07:24:44;15.25;;;8.45;;
73359;SDS011;63092;43.582;19.528;2024-02-23T07:27:10;8.95;;;5.07;;
73359;SDS011;63092;43.582;19.528;2024-02-23T07:29:35;9.30;;;6.32;;
73359;SDS011;63092;43.582;19.528;2024-02-23T07:32:01;9.45;;;5.90;;
73359;SDS011;63092;43.582;19.528;2024-02-23T07:34:27;9.82;;;6.35;;
73359;SDS011;63092;43.582;19.528;2024-02-23T07:36:54;11.88;;;6.45;;
73359;SDS011;63092;43.582;19.528;2024-02-23T07:39:20;12.02;;;6.25;;
73359;SDS011;63092;43.582;19.528;2024-02-23T07:41:47;15.13;;;6.72;;
73359;SDS011;63092;43.582;19.528;2024-02-23T07:44:12;13.45;;;7.43;;
73359;SDS011;63092;43.582;19.528;2024-02-23T07:46:38;8.02;;;4.85;;
73359;SDS011;63092;43.582;19.528;2024-02-23T07:49:04;11.90;;;6.57;;
73359;SDS011;63092;43.582;19.528;2024-02-23T07:51:34;12.07;;;6.40;;
73359;SDS011;63092;43.582;19.528;2024-02-23T07:54:00;4.63;;;2.58;;
73359;SDS011;63092;43.582;19.528;2024-02-23T07:56:26;9.70;;;5.30;;
73359;SDS011;63092;43.582;19.528;2024-02-23T07:58:53;11.23;;;5.32;;
73359;SDS011;63092;43.582;19.528;2024-02-23T08:01:19;6.68;;;3.50;;
73359;SDS011;63092;43.582;19.528;2024-02-23T08:03:45;8.43;;;4.72;;
73359;SDS011;63092;43.582;19.528;2024-02-23T08:06:10;13.88;;;6.53;;
73359;SDS011;63092;43.582;19.528;2024-02-23T08:08:38;7.80;;;4.03;;
73359;SDS011;63092;43.582;19.528;2024-02-23T08:11:04;8.80;;;6.13;;
73359;SDS011;63092;43.582;19.528;2024-02-23T08:13:30;8.98;;;4.85;;
73359;SDS011;63092;43.582;19.528;2024-02-23T08:15:59;11.88;;;7.70;;
73359;SDS011;63092;43.582;19.528;2024-02-23T08:18:25;28.08;;;14.90;;
73359;SDS011;63092;43.582;19.528;2024-02-23T08:20:51;14.70;;;5.82;;
73359;SDS011;63092;43.582;19.528;2024-02-23T08:23:17;10.00;;;5.47;;
73359;SDS011;63092;43.582;19.528;2024-02-23T08:25:47;8.35;;;4.75;;
73359;SDS011;63092;43.582;19.528;2024-02-23T08:28:13;7.45;;;3.70;;
73359;SDS011;63092;43.582;19.528;2024-02-23T08:30:39;5.65;;;3.17;;
73359;SDS011;63092;43.582;19.528;2024-02-23T08:33:05;5.28;;;3.33;;
73359;SDS011;63092;43.582;19.528;2024-02-23T08:35:30;7.18;;;3.88;;
73359;SDS011;63092;43.582;19.528;2024-02-23T08:37:57;5.15;;;3.15;;
73359;SDS011;63092;43.582;19.528;2024-02-23T08:40:23;6.72;;;4.05;;
73359;SDS011;63092;43.582;19.528;2024-02-23T08:42:48;6.47;;;3.47;;
73359;SDS011;63092;43.582;19.528;2024-02-23T08:45:15;9.32;;;4.72;;
73359;SDS011;63092;43.582;19.528;2024-02-23T08:47:41;11.02;;;5.80;;
73359;SDS011;63092;43.582;19.528;2024-02-23T08:50:07;9.98;;;4.28;;
73359;SDS011;63092;43.582;19.528;2024-02-23T08:52:33;7.78;;;4.63;;
73359;SDS011;63092;43.582;19.528;2024-02-23T08:54:58;5.65;;;3.20;;
73359;SDS011;63092;43.582;19.528;2024-02-23T08:57:25;7.97;;;3.85;;
73359;SDS011;63092;43.582;19.528;2024-02-23T08:59:52;11.05;;;5.10;;
73359;SDS011;63092;43.582;19.528;2024-02-23T09:02:18;7.13;;;3.92;;
73359;SDS011;63092;43.582;19.528;2024-02-23T09:04:44;8.32;;;3.45;;
73359;SDS011;63092;43.582;19.528;2024-02-23T09:07:10;6.78;;;3.70;;
73359;SDS011;63092;43.582;19.528;2024-02-23T09:09:37;11.18;;;4.25;;
73359;SDS011;63092;43.582;19.528;2024-02-23T09:12:02;7.32;;;4.00;;
73359;SDS011;63092;43.582;19.528;2024-02-23T09:14:28;6.57;;;3.38;;
73359;SDS011;63092;43.582;19.528;2024-02-23T09:16:54;6.53;;;3.30;;
73359;SDS011;63092;43.582;19.528;2024-02-23T09:19:20;9.88;;;5.13;;
73359;SDS011;63092;43.582;19.528;2024-02-23T09:21:46;8.13;;;3.97;;
73359;SDS011;63092;43.582;19.528;2024-02-23T09:24:12;9.35;;;5.50;;
73359;SDS011;63092;43.582;19.528;2024-02-23T09:26:38;7.53;;;3.67;;
73359;SDS011;63092;43.582;19.528;2024-02-23T09:29:04;8.13;;;4.75;;
73359;SDS011;63092;43.582;19.528;2024-02-23T09:31:30;10.60;;;5.20;;
73359;SDS011;63092;43.582;19.528;2024-02-23T09:33:57;7.45;;;3.92;;
73359;SDS011;63092;43.582;19.528;2024-02-23T09:36:24;11.27;;;6.22;;
73359;SDS011;63092;43.582;19.528;2024-02-23T09:38:50;15.73;;;8.95;;
73359;SDS011;63092;43.582;19.528;2024-02-23T09:41:22;11.75;;;7.38;;
73359;SDS011;63092;43.582;19.528;2024-02-23T09:43:49;13.32;;;7.90;;
73359;SDS011;63092;43.582;19.528;2024-02-23T09:46:16;12.38;;;6.20;;
73359;SDS011;63092;43.582;19.528;2024-02-23T09:48:45;10.40;;;6.63;;
73359;SDS011;63092;43.582;19.528;2024-02-23T09:51:13;10.98;;;6.60;;
73359;SDS011;63092;43.582;19.528;2024-02-23T09:53:40;11.90;;;7.57;;
73359;SDS011;63092;43.582;19.528;2024-02-23T09:56:07;23.15;;;11.65;;
73359;SDS011;63092;43.582;19.528;2024-02-23T09:58:34;17.30;;;10.02;;
73359;SDS011;63092;43.582;19.528;2024-02-23T10:01:02;8.80;;;5.40;;
73359;SDS011;63092;43.582;19.528;2024-02-23T10:03:29;9.52;;;6.10;;
73359;SDS011;63092;43.582;19.528;2024-02-23T10:05:58;9.80;;;5.50;;
73359;SDS011;63092;43.582;19.528;2024-02-23T10:10:54;7.47;;;3.50;;
73359;SDS011;63092;43.582;19.528;2024-02-23T10:13:21;5.45;;;3.17;;
73359;SDS011;63092;43.582;19.528;2024-02-23T10:15:52;9.23;;;4.68;;
73359;SDS011;63092;43.582;19.528;2024-02-23T10:18:18;6.78;;;3.90;;
73359;SDS011;63092;43.582;19.528;2024-02-23T10:20:44;6.25;;;3.35;;
73359;SDS011;63092;43.582;19.528;2024-02-23T10:23:12;5.72;;;3.13;;
73359;SDS011;63092;43.582;19.528;2024-02-23T10:25:38;5.75;;;3.28;;
73359;SDS011;63092;43.582;19.528;2024-02-23T10:28:05;4.60;;;2.55;;
73359;SDS011;63092;43.582;19.528;2024-02-23T10:30:31;5.05;;;2.50;;
73359;SDS011;63092;43.582;19.528;2024-02-23T10:32:58;14.00;;;7.20;;
73359;SDS011;63092;43.582;19.528;2024-02-23T10:35:24;10.90;;;6.30;;
73359;SDS011;63092;43.582;19.528;2024-02-23T10:37:52;6.03;;;3.28;;
73359;SDS011;63092;43.582;19.528;2024-02-23T10:40:20;9.23;;;5.18;;
73359;SDS011;63092;43.582;19.528;2024-02-23T10:42:48;5.07;;;2.67;;
73359;SDS011;63092;43.582;19.528;2024-02-23T10:45:19;4.80;;;2.88;;
73359;SDS011;63092;43.582;19.528;2024-02-23T10:47:49;7.28;;;3.60;;
73359;SDS011;63092;43.582;19.528;2024-02-23T10:50:16;8.55;;;4.50;;
73359;SDS011;63092;43.582;19.528;2024-02-23T10:52:44;13.05;;;5.90;;
73359;SDS011;63092;43.582;19.528;2024-02-23T10:55:12;14.52;;;7.20;;
73359;SDS011;63092;43.582;19.528;2024-02-23T10:57:39;12.32;;;6.35;;
73359;SDS011;63092;43.582;19.528;2024-02-23T11:00:05;20.75;;;8.52;;
73359;SDS011;63092;43.582;19.528;2024-02-23T11:02:36;10.80;;;4.88;;
73359;SDS011;63092;43.582;19.528;2024-02-23T11:05:06;9.55;;;4.80;;
73359;SDS011;63092;43.582;19.528;2024-02-23T11:07:37;12.90;;;5.70;;
73359;SDS011;63092;43.582;19.528;2024-02-23T11:10:04;4.32;;;2.10;;
73359;SDS011;63092;43.582;19.528;2024-02-23T11:12:30;6.00;;;3.17;;
73359;SDS011;63092;43.582;19.528;2024-02-23T11:14:59;7.05;;;3.33;;
73359;SDS011;63092;43.582;19.528;2024-02-23T11:17:26;6.22;;;3.40;;
73359;SDS011;63092;43.582;19.528;2024-02-23T11:19:54;6.97;;;2.70;;
73359;SDS011;63092;43.582;19.528;2024-02-23T11:22:27;7.47;;;2.80;;
73359;SDS011;63092;43.582;19.528;2024-02-23T11:24:59;6.82;;;3.65;;
73359;SDS011;63092;43.582;19.528;2024-02-23T11:27:31;7.15;;;4.75;;
73359;SDS011;63092;43.582;19.528;2024-02-23T11:30:04;10.63;;;5.43;;
73359;SDS011;63092;43.582;19.528;2024-02-23T11:32:37;14.63;;;7.35;;
73359;SDS011;63092;43.582;19.528;2024-02-23T11:35:08;7.85;;;3.90;;
73359;SDS011;63092;43.582;19.528;2024-02-23T11:40:13;4.00;;;2.15;;
73359;SDS011;63092;43.582;19.528;2024-02-23T11:42:43;5.70;;;3.10;;
73359;SDS011;63092;43.582;19.528;2024-02-23T11:45:09;7.53;;;2.90;;
73359;SDS011;63092;43.582;19.528;2024-02-23T11:47:38;11.25;;;5.65;;
73359;SDS011;63092;43.582;19.528;2024-02-23T11:50:10;8.02;;;4.40;;
73359;SDS011;63092;43.582;19.528;2024-02-23T11:52:37;5.68;;;2.25;;
73359;SDS011;63092;43.582;19.528;2024-02-23T11:55:03;6.88;;;4.20;;
73359;SDS011;63092;43.582;19.528;2024-02-23T11:57:30;7.40;;;3.80;;
73359;SDS011;63092;43.582;19.528;2024-02-23T11:59:57;5.28;;;2.80;;
73359;SDS011;63092;43.582;19.528;2024-02-23T12:02:23;7.07;;;3.63;;
73359;SDS011;63092;43.582;19.528;2024-02-23T12:04:49;6.35;;;3.53;;
73359;SDS011;63092;43.582;19.528;2024-02-23T12:07:15;11.18;;;5.65;;
73359;SDS011;63092;43.582;19.528;2024-02-23T12:09:44;10.95;;;6.10;;
73359;SDS011;63092;43.582;19.528;2024-02-23T12:12:10;8.15;;;4.30;;
73359;SDS011;63092;43.582;19.528;2024-02-23T12:14:36;7.00;;;4.07;;
73359;SDS011;63092;43.582;19.528;2024-02-23T12:17:02;7.55;;;3.67;;
73359;SDS011;63092;43.582;19.528;2024-02-23T12:19:31;9.15;;;4.72;;
73359;SDS011;63092;43.582;19.528;2024-02-23T12:22:01;7.25;;;3.15;;
73359;SDS011;63092;43.582;19.528;2024-02-23T12:24:27;7.30;;;3.80;;
73359;SDS011;63092;43.582;19.528;2024-02-23T12:26:56;4.70;;;2.78;;
73359;SDS011;63092;43.582;19.528;2024-02-23T12:29:23;11.27;;;6.47;;
73359;SDS011;63092;43.582;19.528;2024-02-23T12:31:49;5.53;;;3.20;;
73359;SDS011;63092;43.582;19.528;2024-02-23T12:34:15;11.45;;;5.00;;
73359;SDS011;63092;43.582;19.528;2024-02-23T12:36:41;11.30;;;6.93;;
73359;SDS011;63092;43.582;19.528;2024-02-23T12:39:08;14.52;;;7.75;;
73359;SDS011;63092;43.582;19.528;2024-02-23T12:41:34;8.32;;;4.88;;
73359;SDS011;63092;43.582;19.528;2024-02-23T12:44:00;11.02;;;4.18;;
73359;SDS011;63092;43.582;19.528;2024-02-23T12:46:25;7.75;;;4.40;;
73359;SDS011;63092;43.582;19.528;2024-02-23T12:48:51;8.85;;;4.30;;
73359;SDS011;63092;43.582;19.528;2024-02-23T12:51:17;9.90;;;5.60;;
73359;SDS011;63092;43.582;19.528;2024-02-23T12:53:43;10.95;;;5.75;;
73359;SDS011;63092;43.582;19.528;2024-02-23T12:56:10;8.55;;;5.00;;
73359;SDS011;63092;43.582;19.528;2024-02-23T12:58:38;18.13;;;8.77;;
73359;SDS011;63092;43.582;19.528;2024-02-23T13:01:05;13.10;;;7.18;;
73359;SDS011;63092;43.582;19.528;2024-02-23T13:03:32;12.68;;;5.63;;
73359;SDS011;63092;43.582;19.528;2024-02-23T13:05:59;11.93;;;6.28;;
73359;SDS011;63092;43.582;19.528;2024-02-23T13:08:25;14.18;;;7.50;;
73359;SDS011;63092;43.582;19.528;2024-02-23T13:10:52;15.82;;;9.45;;
73359;SDS011;63092;43.582;19.528;2024-02-23T13:13:19;7.38;;;4.55;;
73359;SDS011;63092;43.582;19.528;2024-02-23T13:15:46;9.70;;;4.35;;
73359;SDS011;63092;43.582;19.528;2024-02-23T13:18:13;7.57;;;4.63;;
73359;SDS011;63092;43.582;19.528;2024-02-23T13:20:40;8.07;;;3.97;;
73359;SDS011;63092;43.582;19.528;2024-02-23T13:23:06;6.50;;;4.20;;
73359;SDS011;63092;43.582;19.528;2024-02-23T13:25:37;12.30;;;5.35;;
73359;SDS011;63092;43.582;19.528;2024-02-23T13:28:04;6.97;;;3.75;;
73359;SDS011;63092;43.582;19.528;2024-02-23T13:30:30;6.07;;;3.75;;
73359;SDS011;63092;43.582;19.528;2024-02-23T13:32:59;8.73;;;4.30;;
73359;SDS011;63092;43.582;19.528;2024-02-23T13:35:25;6.65;;;2.63;;
73359;SDS011;63092;43.582;19.528;2024-02-23T13:37:51;12.32;;;5.20;;
73359;SDS011;63092;43.582;19.528;2024-02-23T13:40:17;7.50;;;4.10;;
73359;SDS011;63092;43.582;19.528;2024-02-23T13:42:43;10.02;;;5.53;;
73359;SDS011;63092;43.582;19.528;2024-02-23T13:45:17;5.70;;;3.13;;
73359;SDS011;63092;43.582;19.528;2024-02-23T13:48:00;4.68;;;2.83;;
73359;SDS011;63092;43.582;19.528;2024-02-23T13:50:28;7.53;;;3.78;;
73359;SDS011;63092;43.582;19.528;2024-02-23T13:52:54;5.22;;;3.33;;
73359;SDS011;63092;43.582;19.528;2024-02-23T13:55:20;6.80;;;3.85;;
73359;SDS011;63092;43.582;19.528;2024-02-23T13:57:47;7.80;;;4.40;;
73359;SDS011;63092;43.582;19.528;2024-02-23T14:00:15;6.82;;;3.90;;
73359;SDS011;63092;43.582;19.528;2024-02-23T14:02:41;9.00;;;4.45;;
73359;SDS011;63092;43.582;19.528;2024-02-23T14:05:07;9.63;;;5.07;;
73359;SDS011;63092;43.582;19.528;2024-02-23T14:07:34;8.57;;;4.60;;
73359;SDS011;63092;43.582;19.528;2024-02-23T14:10:00;7.68;;;3.92;;
73359;SDS011;63092;43.582;19.528;2024-02-23T14:12:27;15.40;;;8.10;;
73359;SDS011;63092;43.582;19.528;2024-02-23T14:14:53;9.95;;;4.85;;
73359;SDS011;63092;43.582;19.528;2024-02-23T14:17:19;6.47;;;3.22;;
73359;SDS011;63092;43.582;19.528;2024-02-23T14:19:45;12.23;;;5.97;;
73359;SDS011;63092;43.582;19.528;2024-02-23T14:22:11;10.55;;;5.60;;
73359;SDS011;63092;43.582;19.528;2024-02-23T14:24:37;19.38;;;9.60;;
73359;SDS011;63092;43.582;19.528;2024-02-23T14:27:02;9.65;;;4.90;;
73359;SDS011;63092;43.582;19.528;2024-02-23T14:29:28;9.88;;;5.28;;